Time;durP1;ratioP1;P1;durP2;ratioP2;P2;SDS_P1;SDS_P2;PMS_P1;PMS_P2;Temp;Humidity;BMP_temperature;BMP_pressure;BME280_temperature;BME280_humidity;BME280_pressure;Samples;Min_cycle;Max_cycle;Signal;HPM_P1;HPM_P2
2023/06/08 00:02:07;;;;;;;12.55;4.75;;;11.70;99.90;;;;;;5054536;28;20041;-82
2023/06/08 00:04:33;;;;;;;15.02;5.10;;;11.70;99.90;;;;;;5055046;28;20091;-82
2023/06/08 00:07:03;;;;;;;15.57;5.38;;;11.70;99.90;;;;;;5070911;28;20048;-82
2023/06/08 00:09:30;;;;;;;12.80;5.05;;;11.70;99.90;;;;;;5071682;28;20045;-83
2023/06/08 00:11:58;;;;;;;10.13;5.57;;;11.70;99.90;;;;;;5072608;28;20127;-82
2023/06/08 00:14:25;;;;;;;15.95;5.25;;;11.70;99.90;;;;;;5055186;28;20033;-82
2023/06/08 00:16:52;;;;;;;12.40;6.10;;;11.70;99.90;;;;;;5038726;28;20044;-82
2023/06/08 00:19:19;;;;;;;12.80;5.90;;;11.80;99.90;;;;;;5054709;28;20048;-82
2023/06/08 00:21:48;;;;;;;14.70;5.60;;;11.70;99.90;;;;;;5070456;28;20039;-82
2023/06/08 00:24:20;;;;;;;12.52;5.38;;;11.70;99.90;;;;;;5090289;28;20076;-82
2023/06/08 00:26:47;;;;;;;13.95;5.43;;;11.70;99.90;;;;;;5074970;28;20086;-81
2023/06/08 00:29:14;;;;;;;12.95;5.32;;;11.70;99.90;;;;;;5057780;28;20082;-82
2023/06/08 00:31:41;;;;;;;13.85;5.50;;;11.70;99.90;;;;;;5074268;28;20131;-82
2023/06/08 00:34:07;;;;;;;14.77;5.15;;;11.80;99.90;;;;;;5074050;28;20051;-82
2023/06/08 00:36:34;;;;;;;15.68;5.63;;;11.70;99.90;;;;;;5057521;28;20040;-82
2023/06/08 00:39:01;;;;;;;14.30;5.57;;;11.70;99.90;;;;;;5069807;28;20174;-82
2023/06/08 00:41:27;;;;;;;13.55;5.90;;;11.70;99.90;;;;;;5087241;28;20041;-82
2023/06/08 00:43:54;;;;;;;21.85;5.97;;;11.70;99.90;;;;;;5070533;28;20052;-82
2023/06/08 00:46:24;;;;;;;12.70;5.63;;;11.70;99.90;;;;;;5086863;28;20137;-82
2023/06/08 00:48:52;;;;;;;19.20;6.15;;;11.70;99.90;;;;;;5086834;28;20052;-82
2023/06/08 00:51:20;;;;;;;16.13;5.95;;;11.60;99.90;;;;;;5072834;28;20098;-82
2023/06/08 00:53:47;;;;;;;13.55;6.00;;;11.60;99.90;;;;;;5054004;28;20448;-82
2023/06/08 00:56:16;;;;;;;14.13;5.80;;;11.60;99.90;;;;;;5037526;28;20040;-81
2023/06/08 00:58:46;;;;;;;10.50;5.60;;;11.60;99.90;;;;;;5070227;28;20045;-83
2023/06/08 01:01:19;;;;;;;15.75;6.13;;;11.60;99.90;;;;;;5069869;28;20041;-82
2023/06/08 01:03:46;;;;;;;12.23;5.93;;;11.60;99.90;;;;;;5070035;28;20194;-82
2023/06/08 01:06:16;;;;;;;16.30;6.00;;;11.60;99.90;;;;;;5069722;28;20049;-82
2023/06/08 01:08:54;;;;;;;18.58;6.38;;;11.60;99.90;;;;;;5086684;28;20127;-82
2023/06/08 01:12:11;;;;;;;16.70;6.85;;;11.60;99.90;;;;;;5086235;28;20132;-82
2023/06/08 01:14:44;;;;;;;12.13;6.32;;;11.60;99.90;;;;;;5069245;28;20130;-82
2023/06/08 01:17:15;;;;;;;16.25;6.60;;;11.60;99.90;;;;;;5069805;28;20068;-82
2023/06/08 01:20:06;;;;;;;16.48;6.55;;;11.60;99.90;;;;;;5070391;28;20044;-82
2023/06/08 01:22:51;;;;;;;15.35;6.40;;;11.60;99.90;;;;;;5086658;28;20041;-82
2023/06/08 01:25:20;;;;;;;17.95;6.65;;;11.60;99.90;;;;;;5069223;28;20061;-82
2023/06/08 01:27:48;;;;;;;16.70;6.63;;;11.60;99.90;;;;;;5053211;28;20056;-83
2023/06/08 01:30:14;;;;;;;15.30;6.85;;;11.60;99.90;;;;;;5037062;28;20036;-82
2023/06/08 01:32:42;;;;;;;19.88;7.22;;;11.60;99.90;;;;;;5054644;28;20136;-82
2023/06/08 01:35:09;;;;;;;13.40;7.00;;;11.60;99.90;;;;;;5072940;28;20040;-82
2023/06/08 01:37:55;;;;;;;18.60;6.95;;;11.60;99.90;;;;;;5056619;28;20036;-83
2023/06/08 01:40:26;;;;;;;;;;;11.60;99.90;;;;;;5090370;28;20040;-82
2023/06/08 01:42:53;;;;;;;15.10;7.30;;;11.60;99.90;;;;;;5105739;28;19923;-82
2023/06/08 01:45:26;;;;;;;13.50;6.57;;;11.60;99.90;;;;;;5070230;28;20047;-82
2023/06/08 01:48:02;;;;;;;13.48;7.05;;;11.60;99.90;;;;;;5085751;28;20592;-82
2023/06/08 01:50:31;;;;;;;17.83;7.40;;;11.60;99.90;;;;;;5085468;28;20043;-82
2023/06/08 01:52:58;;;;;;;15.52;7.07;;;11.60;99.90;;;;;;5069576;28;20124;-82
2023/06/08 01:55:27;;;;;;;20.95;7.10;;;11.70;99.90;;;;;;5052759;28;20076;-82
2023/06/08 01:57:55;;;;;;;16.90;7.45;;;11.70;99.90;;;;;;5069038;28;20128;-82
2023/06/08 02:00:21;;;;;;;14.85;6.95;;;11.70;99.90;;;;;;5069717;28;20570;-82
2023/06/08 02:02:48;;;;;;;18.40;7.07;;;11.70;99.90;;;;;;5089058;28;20040;-81
2023/06/08 02:05:16;;;;;;;12.65;6.85;;;11.70;99.90;;;;;;5072323;28;20076;-82
2023/06/08 02:07:43;;;;;;;18.63;6.90;;;11.70;99.90;;;;;;5072528;28;20044;-82
2023/06/08 02:10:11;;;;;;;19.35;7.35;;;11.70;99.90;;;;;;5061439;28;20375;-81
2023/06/08 02:12:39;;;;;;;15.90;5.82;;;11.80;99.90;;;;;;5069240;28;20044;-82
2023/06/08 02:15:06;;;;;;;13.30;6.22;;;11.80;99.90;;;;;;5085915;28;20831;-82
2023/06/08 02:17:35;;;;;;;17.73;7.07;;;11.70;99.90;;;;;;5068788;28;20119;-82
2023/06/08 02:20:06;;;;;;;15.80;6.00;;;11.70;99.90;;;;;;5085688;28;20045;-82
2023/06/08 02:22:34;;;;;;;14.43;6.15;;;11.70;99.90;;;;;;5068530;28;20518;-82
2023/06/08 02:25:01;;;;;;;12.45;5.30;;;11.70;99.90;;;;;;5052491;28;20106;-82
2023/06/08 02:27:27;;;;;;;15.40;5.57;;;11.70;99.90;;;;;;5036080;28;20076;-82
2023/06/08 02:29:56;;;;;;;15.25;5.65;;;11.70;99.90;;;;;;5057085;28;20064;-82
2023/06/08 02:32:23;;;;;;;11.77;4.95;;;11.70;99.90;;;;;;5088590;28;20048;-82
2023/06/08 02:34:58;;;;;;;11.73;4.90;;;11.70;99.90;;;;;;5089360;28;20400;-82
2023/06/08 02:37:25;;;;;;;13.38;4.72;;;11.70;99.90;;;;;;5058193;28;20041;-82
2023/06/08 02:39:52;;;;;;;14.30;4.80;;;11.70;99.90;;;;;;5056479;28;20123;-82
2023/06/08 02:42:19;;;;;;;12.52;4.60;;;11.70;99.90;;;;;;5088287;28;20127;-81
2023/06/08 02:44:46;;;;;;;11.02;4.97;;;11.70;99.90;;;;;;5089178;28;20115;-82
2023/06/08 02:47:17;;;;;;;17.25;5.38;;;11.70;99.90;;;;;;5089128;28;20124;-82
2023/06/08 02:49:44;;;;;;;13.00;5.57;;;11.70;99.90;;;;;;5105409;28;20098;-82
2023/06/08 02:52:11;;;;;;;15.13;5.32;;;11.80;99.90;;;;;;5087907;28;20041;-82
2023/06/08 02:54:37;;;;;;;13.52;5.40;;;11.70;99.90;;;;;;5072467;28;20497;-82
2023/06/08 02:57:05;;;;;;;13.90;5.80;;;11.70;99.90;;;;;;5088930;28;20095;-82
2023/06/08 02:59:32;;;;;;;12.30;4.95;;;11.70;99.90;;;;;;5105105;28;20127;-82
2023/06/08 03:01:59;;;;;;;13.82;5.30;;;11.70;99.90;;;;;;5055665;28;20044;-82
2023/06/08 03:04:27;;;;;;;13.23;5.40;;;11.70;99.90;;;;;;5075429;28;20489;-82
2023/06/08 03:06:54;;;;;;;16.00;5.18;;;11.70;99.90;;;;;;5059093;28;20501;-82
2023/06/08 03:09:28;;;;;;;10.63;4.88;;;11.70;99.90;;;;;;5091659;28;20063;-82
2023/06/08 03:11:55;;;;;;;17.33;5.55;;;11.70;99.90;;;;;;5069634;28;20037;-82
2023/06/08 03:14:28;;;;;;;12.35;4.82;;;11.70;99.90;;;;;;5055086;28;20401;-82
2023/06/08 03:17:02;;;;;;;13.70;5.18;;;11.80;99.90;;;;;;5056412;28;20041;-82
2023/06/08 03:19:32;;;;;;;13.15;5.05;;;11.80;99.90;;;;;;5071442;28;20082;-82
2023/06/08 03:22:00;;;;;;;12.30;5.38;;;11.70;99.90;;;;;;5077508;28;20079;-82
2023/06/08 03:24:28;;;;;;;14.65;5.38;;;11.80;99.90;;;;;;5090438;28;20149;-82
2023/06/08 03:27:01;;;;;;;12.50;4.72;;;11.70;99.90;;;;;;5055851;28;20512;-82
2023/06/08 03:29:29;;;;;;;13.07;4.53;;;11.70;99.90;;;;;;5040430;28;20045;-82
2023/06/08 03:31:56;;;;;;;13.40;5.57;;;11.70;99.90;;;;;;5071818;28;20037;-82
2023/06/08 03:34:25;;;;;;;13.02;5.72;;;11.70;99.90;;;;;;5055542;28;20250;-82
2023/06/08 03:36:55;;;;;;;14.60;5.22;;;11.60;99.90;;;;;;5055465;28;20123;-82
2023/06/08 03:39:22;;;;;;;13.82;4.90;;;11.70;99.90;;;;;;5071792;28;20478;-82
2023/06/08 03:41:49;;;;;;;12.70;5.10;;;11.70;99.90;;;;;;5054772;28;20044;-82
2023/06/08 03:44:16;;;;;;;14.75;5.22;;;11.70;99.90;;;;;;5081453;28;20500;-82
2023/06/08 03:46:44;;;;;;;12.20;4.65;;;11.70;99.90;;;;;;5074998;28;20076;-81
2023/06/08 03:49:11;;;;;;;12.43;4.97;;;11.70;99.90;;;;;;5108453;28;20050;-82
2023/06/08 03:51:37;;;;;;;14.60;5.47;;;11.70;99.90;;;;;;5091415;28;20500;-82
2023/06/08 03:54:04;;;;;;;14.60;5.35;;;11.70;99.90;;;;;;5082140;28;20032;-82
2023/06/08 03:56:31;;;;;;;9.68;5.03;;;11.60;99.90;;;;;;5058613;28;20408;-82
2023/06/08 03:58:58;;;;;;;14.18;5.40;;;11.60;99.90;;;;;;5074831;28;20044;-82
2023/06/08 04:01:27;;;;;;;15.85;5.00;;;11.60;99.90;;;;;;5091364;28;20044;-82
2023/06/08 04:03:53;;;;;;;14.05;5.10;;;11.60;99.90;;;;;;5091257;28;20048;-82
2023/06/08 04:06:20;;;;;;;15.75;5.57;;;11.60;99.90;;;;;;5074389;28;20044;-81
2023/06/08 04:08:47;;;;;;;11.65;5.15;;;11.60;99.90;;;;;;5074302;28;20491;-82
2023/06/08 04:11:13;;;;;;;12.30;5.13;;;11.70;99.90;;;;;;5091082;28;20519;-82
2023/06/08 04:13:41;;;;;;;11.98;4.93;;;11.70;99.90;;;;;;5090594;28;20033;-82
2023/06/08 04:16:09;;;;;;;12.50;5.00;;;11.70;99.90;;;;;;5091571;28;20037;-82
2023/06/08 04:18:39;;;;;;;18.55;5.72;;;11.80;99.90;;;;;;5074405;28;20044;-82
2023/06/08 04:21:07;;;;;;;22.45;5.70;;;11.80;99.90;;;;;;5091217;28;20075;-82
2023/06/08 04:23:34;;;;;;;14.18;5.05;;;11.80;99.90;;;;;;5090677;28;20082;-82
2023/06/08 04:26:08;;;;;;;18.95;5.28;;;11.80;99.90;;;;;;5107426;28;20064;-82
2023/06/08 04:28:35;;;;;;;16.30;5.50;;;11.80;99.90;;;;;;5090398;28;20040;-82
2023/06/08 04:31:04;;;;;;;14.35;4.93;;;11.80;99.90;;;;;;5090670;28;20417;-82
2023/06/08 04:33:31;;;;;;;15.35;5.30;;;11.90;99.90;;;;;;5091141;28;20503;-82
2023/06/08 04:35:58;;;;;;;11.88;5.40;;;11.90;99.90;;;;;;5090412;28;20036;-82
2023/06/08 04:38:25;;;;;;;17.95;6.07;;;11.90;99.90;;;;;;5057922;28;20700;-82
2023/06/08 04:40:53;;;;;;;13.57;5.15;;;11.90;99.90;;;;;;5073747;28;20175;-82
2023/06/08 04:43:21;;;;;;;11.30;5.57;;;11.90;99.90;;;;;;5073731;28;20436;-82
2023/06/08 04:45:59;;;;;;;10.60;5.13;;;11.90;99.90;;;;;;5090052;28;20132;-82
2023/06/08 04:48:29;;;;;;;14.15;5.18;;;12.00;99.90;;;;;;5075303;28;20048;-82
2023/06/08 04:51:03;;;;;;;13.93;5.15;;;12.00;99.90;;;;;;5073734;28;20518;-82
2023/06/08 04:53:33;;;;;;;14.18;6.15;;;12.00;99.90;;;;;;5107346;28;20037;-82
2023/06/08 04:56:01;;;;;;;12.50;5.80;;;12.00;99.90;;;;;;5106498;28;20032;-83
2023/06/08 04:58:29;;;;;;;13.20;5.53;;;12.10;99.90;;;;;;5075896;28;20130;-82
2023/06/08 05:00:56;;;;;;;13.85;5.32;;;12.10;99.90;;;;;;5037338;28;20076;-82
2023/06/08 05:03:24;;;;;;;14.68;5.80;;;12.20;99.90;;;;;;5086419;28;20370;-82
2023/06/08 05:05:50;;;;;;;14.90;5.65;;;12.20;99.90;;;;;;5058366;28;20060;-82
2023/06/08 05:08:18;;;;;;;14.35;5.57;;;12.20;99.90;;;;;;5090465;28;20040;-82
2023/06/08 05:10:44;;;;;;;16.50;5.78;;;12.30;99.90;;;;;;5073343;28;20098;-82
2023/06/08 05:13:11;;;;;;;13.32;5.55;;;12.20;99.90;;;;;;5106723;28;20052;-82
2023/06/08 05:15:38;;;;;;;18.60;6.45;;;12.30;99.90;;;;;;5073302;28;20028;-81
2023/06/08 05:18:04;;;;;;;11.98;5.38;;;12.30;99.90;;;;;;5089673;28;20044;-82
2023/06/08 05:20:31;;;;;;;16.48;5.78;;;12.40;99.90;;;;;;5090139;28;20044;-82
2023/06/08 05:22:58;;;;;;;11.15;5.18;;;12.30;99.90;;;;;;5073463;28;20568;-82
2023/06/08 05:25:26;;;;;;;16.20;5.50;;;12.30;99.90;;;;;;5072857;28;20075;-82
2023/06/08 05:27:53;;;;;;;15.18;5.65;;;12.30;99.90;;;;;;5089317;28;20416;-82
2023/06/08 05:30:19;;;;;;;11.32;5.55;;;12.40;99.90;;;;;;5089598;28;20047;-82
2023/06/08 05:32:46;;;;;;;17.10;5.50;;;12.50;99.90;;;;;;5073518;28;20041;-82
2023/06/08 05:35:13;;;;;;;17.25;5.57;;;12.60;99.90;;;;;;5089675;28;20127;-83
2023/06/08 05:37:39;;;;;;;12.55;5.55;;;12.60;99.90;;;;;;5062402;28;20036;-82
2023/06/08 05:40:07;;;;;;;12.27;5.18;;;12.70;99.90;;;;;;5053005;28;20556;-82
2023/06/08 05:42:34;;;;;;;16.73;5.53;;;12.80;99.90;;;;;;5036882;28;20044;-82
2023/06/08 05:45:01;;;;;;;13.63;5.38;;;12.90;99.90;;;;;;5055609;28;20033;-82
2023/06/08 05:47:27;;;;;;;15.73;4.70;;;12.90;99.90;;;;;;5047129;28;20036;-82
2023/06/08 05:49:54;;;;;;;14.52;5.40;;;13.00;99.90;;;;;;5062045;28;20564;-83
2023/06/08 05:52:21;;;;;;;12.52;4.60;;;13.00;99.90;;;;;;5069472;28;20090;-81
2023/06/08 05:54:47;;;;;;;13.77;4.60;;;13.00;99.90;;;;;;5052514;28;20036;-82
2023/06/08 05:57:14;;;;;;;13.75;4.53;;;13.00;99.90;;;;;;5069051;28;20159;-82
2023/06/08 05:59:41;;;;;;;12.35;4.60;;;12.90;99.90;;;;;;5069431;28;20051;-83
2023/06/08 06:02:07;;;;;;;11.13;4.07;;;12.90;99.90;;;;;;5068635;28;20037;-82
2023/06/08 06:04:36;;;;;;;13.70;4.00;;;12.90;99.90;;;;;;5069302;28;20532;-84
2023/06/08 06:07:05;;;;;;;13.80;4.32;;;12.90;99.90;;;;;;5052807;28;20041;-83
2023/06/08 06:09:32;;;;;;;9.77;3.75;;;12.80;99.90;;;;;;5069293;28;20048;-84
2023/06/08 06:11:59;;;;;;;11.10;4.55;;;12.90;99.90;;;;;;5068986;28;20852;-83
2023/06/08 06:14:28;;;;;;;11.45;4.15;;;12.90;99.90;;;;;;5052624;28;20037;-83
2023/06/08 06:16:54;;;;;;;10.20;3.78;;;12.90;99.90;;;;;;5068463;28;20048;-83
2023/06/08 06:19:21;;;;;;;12.73;4.40;;;13.00;99.90;;;;;;5047720;28;20045;-83
2023/06/08 06:21:47;;;;;;;14.38;4.80;;;13.00;99.90;;;;;;5056103;28;20139;-83
2023/06/08 06:24:14;;;;;;;12.23;3.72;;;13.00;99.90;;;;;;5072930;28;20064;-84
2023/06/08 06:26:41;;;;;;;17.55;4.90;;;13.00;99.90;;;;;;5088907;28;20053;-83
2023/06/08 06:29:07;;;;;;;17.60;4.63;;;13.10;99.90;;;;;;5065219;28;20052;-83
2023/06/08 06:31:34;;;;;;;13.18;4.40;;;13.20;99.90;;;;;;5097727;28;20032;-83
2023/06/08 06:34:01;;;;;;;10.98;4.45;;;13.30;99.90;;;;;;5056060;28;20056;-83
2023/06/08 06:36:29;;;;;;;11.98;4.82;;;13.40;99.90;;;;;;5083481;28;20040;-83
2023/06/08 06:38:56;;;;;;;13.23;4.10;;;13.40;99.90;;;;;;5092274;28;20040;-83
2023/06/08 06:41:23;;;;;;;12.90;5.05;;;13.50;99.90;;;;;;5092847;28;20094;-83
2023/06/08 06:43:49;;;;;;;12.13;5.18;;;13.60;99.90;;;;;;5076327;28;20526;-83
2023/06/08 06:46:19;;;;;;;13.00;4.82;;;13.60;99.90;;;;;;5071151;28;20130;-84
2023/06/08 06:48:46;;;;;;;10.52;4.55;;;13.70;99.90;;;;;;5049344;28;20508;-84
2023/06/08 06:51:12;;;;;;;19.20;5.32;;;13.70;99.90;;;;;;5062221;28;20033;-84
2023/06/08 06:53:39;;;;;;;12.25;4.20;;;13.80;99.90;;;;;;5083550;28;20405;-83
2023/06/08 06:56:06;;;;;;;11.65;4.57;;;13.80;99.90;;;;;;5055733;28;20115;-85
2023/06/08 06:58:33;;;;;;;11.80;4.20;;;13.80;99.90;;;;;;5075942;28;20062;-85
2023/06/08 07:01:01;;;;;;;17.02;5.15;;;13.90;99.90;;;;;;5070373;28;20401;-84
2023/06/08 07:03:27;;;;;;;13.73;4.55;;;13.90;99.90;;;;;;5056212;28;20182;-84
2023/06/08 07:05:58;;;;;;;15.23;4.40;;;14.00;99.90;;;;;;5072498;28;20490;-83
2023/06/08 07:08:27;;;;;;;15.80;4.43;;;14.10;99.90;;;;;;5055941;28;20390;-84
2023/06/08 07:10:54;;;;;;;15.48;4.28;;;14.20;99.90;;;;;;5072495;28;20040;-82
2023/06/08 07:13:21;;;;;;;14.70;4.32;;;14.30;99.90;;;;;;5055829;28;20048;-83
2023/06/08 07:15:48;;;;;;;13.48;4.28;;;14.40;99.90;;;;;;5039699;28;20158;-83
2023/06/08 07:18:15;;;;;;;15.57;3.80;;;14.50;99.90;;;;;;5041312;28;20036;-85
2023/06/08 07:20:42;;;;;;;12.95;4.05;;;14.70;99.90;;;;;;5077689;28;20041;-85
2023/06/08 07:23:09;;;;;;;15.40;4.95;;;14.80;99.90;;;;;;5055280;28;20048;-84
2023/06/08 07:25:37;;;;;;;12.30;3.90;;;14.90;99.90;;;;;;5076306;28;20056;-85
2023/06/08 07:28:05;;;;;;;15.55;4.00;;;15.00;99.90;;;;;;5076019;28;20178;-85
2023/06/08 07:30:32;;;;;;;12.27;4.20;;;15.00;99.90;;;;;;5059529;28;20044;-85
2023/06/08 07:32:59;;;;;;;15.82;4.55;;;15.10;99.90;;;;;;5075333;28;20047;-83
2023/06/08 07:35:26;;;;;;;12.13;4.03;;;15.20;99.90;;;;;;5102328;28;20036;-83
2023/06/08 07:37:54;;;;;;;9.23;3.80;;;15.40;99.90;;;;;;5056046;28;20052;-82
2023/06/08 07:40:21;;;;;;;15.10;4.32;;;15.50;99.90;;;;;;5071511;28;20578;-83
2023/06/08 07:42:48;;;;;;;10.90;4.28;;;15.50;99.90;;;;;;5088516;28;20041;-83
2023/06/08 07:45:15;;;;;;;14.02;4.57;;;15.50;99.90;;;;;;5073952;28;20044;-83
2023/06/08 07:47:41;;;;;;;12.82;3.90;;;15.70;99.90;;;;;;5038923;28;20045;-83
2023/06/08 07:50:10;;;;;;;11.25;3.95;;;15.70;99.90;;;;;;5037803;28;20067;-83
2023/06/08 07:52:37;;;;;;;12.38;4.28;;;15.80;99.90;;;;;;5075964;28;20793;-84
2023/06/08 07:55:05;;;;;;;13.52;4.00;;;15.80;99.90;;;;;;5088207;28;20044;-82
2023/06/08 07:57:32;;;;;;;11.93;3.78;;;15.90;99.90;;;;;;5049788;28;20045;-83
2023/06/08 07:59:58;;;;;;;16.48;4.55;;;16.00;99.90;;;;;;5107825;28;20497;-83
2023/06/08 08:02:25;;;;;;;11.15;3.95;;;16.10;99.90;;;;;;5091400;28;20040;-84
2023/06/08 08:04:52;;;;;;;10.15;3.92;;;16.20;99.90;;;;;;5058900;28;20109;-84
2023/06/08 08:07:18;;;;;;;12.70;4.60;;;16.30;99.90;;;;;;5054438;28;20049;-84
2023/06/08 08:09:45;;;;;;;12.63;4.45;;;16.30;99.90;;;;;;5038340;28;20041;-83
2023/06/08 08:12:12;;;;;;;12.07;4.50;;;16.40;99.90;;;;;;5054737;28;20120;-84
2023/06/08 08:14:39;;;;;;;14.57;4.45;;;16.60;99.90;;;;;;5071177;28;20056;-84
2023/06/08 08:17:06;;;;;;;13.40;4.00;;;16.70;99.90;;;;;;5055054;28;20049;-83
2023/06/08 08:19:33;;;;;;;12.23;3.95;;;16.70;99.90;;;;;;5091735;28;20485;-84
2023/06/08 08:21:59;;;;;;;11.82;4.57;;;16.80;99.90;;;;;;5070879;28;20099;-84
2023/06/08 08:24:26;;;;;;;11.25;3.95;;;16.90;99.90;;;;;;5068437;28;20049;-84
2023/06/08 08:26:54;;;;;;;9.77;3.65;;;17.00;99.90;;;;;;5070839;28;20048;-84
2023/06/08 08:29:21;;;;;;;14.30;4.00;;;17.10;99.90;;;;;;5069849;28;20497;-84
2023/06/08 08:31:48;;;;;;;13.80;4.18;;;17.20;99.90;;;;;;5058489;28;20040;-84
2023/06/08 08:34:14;;;;;;;10.57;3.78;;;17.20;99.90;;;;;;5057480;28;20114;-84
2023/06/08 08:36:41;;;;;;;11.27;4.22;;;17.30;99.90;;;;;;5058040;28;20546;-85
2023/06/08 08:39:09;;;;;;;15.43;4.20;;;17.40;99.90;;;;;;5063092;28;20069;-85
2023/06/08 08:41:40;;;;;;;15.05;4.80;;;17.40;99.90;;;;;;5057335;28;20041;-84
2023/06/08 08:44:09;;;;;;;10.30;4.38;;;17.50;99.90;;;;;;5073636;28;20423;-83
2023/06/08 08:46:39;;;;;;;13.63;4.25;;;17.60;99.90;;;;;;5073892;28;20116;-83
2023/06/08 08:49:15;;;;;;;15.00;4.60;;;17.60;99.90;;;;;;5055452;28;20453;-84
2023/06/08 08:51:52;;;;;;;14.32;4.35;;;17.70;99.90;;;;;;5070493;28;20083;-83
2023/06/08 08:54:31;;;;;;;9.18;3.58;;;17.80;99.90;;;;;;5070363;28;20033;-85
2023/06/08 08:56:58;;;;;;;13.63;4.03;;;17.80;99.90;;;;;;5070907;28;20033;-85
2023/06/08 08:59:28;;;;;;;9.90;4.07;;;17.90;99.90;;;;;;5058216;28;20060;-84
2023/06/08 09:01:55;;;;;;;15.90;4.32;;;18.00;99.90;;;;;;5047190;28;20119;-84
2023/06/08 09:04:23;;;;;;;13.82;4.05;;;18.10;99.90;;;;;;5073452;28;20050;-84
2023/06/08 09:06:51;;;;;;;11.88;3.92;;;18.10;99.90;;;;;;5090144;28;20098;-84
2023/06/08 09:09:17;;;;;;;15.07;4.35;;;18.30;99.90;;;;;;5080112;28;20730;-84
2023/06/08 09:12:05;;;;;;;9.43;3.75;;;18.30;99.90;;;;;;5057262;28;20043;-86
2023/06/08 09:14:32;;;;;;;10.55;3.67;;;18.50;99.90;;;;;;5090160;28;20112;-84
2023/06/08 09:16:59;;;;;;;12.43;4.00;;;18.50;99.90;;;;;;5074036;28;20040;-85
2023/06/08 09:19:26;;;;;;;9.98;3.72;;;18.60;99.90;;;;;;5071451;28;20044;-84
2023/06/08 09:21:52;;;;;;;11.48;3.92;;;18.60;99.90;;;;;;5053774;28;20581;-84
2023/06/08 09:24:21;;;;;;;17.75;4.13;;;18.80;99.90;;;;;;5074242;28;20040;-84
2023/06/08 09:26:56;;;;;;;10.05;3.67;;;18.90;99.90;;;;;;5070351;28;20052;-84
2023/06/08 09:29:38;;;;;;;12.20;3.95;;;18.90;99.90;;;;;;5086062;28;20110;-84
2023/06/08 09:32:05;;;;;;;15.70;3.95;;;19.00;99.90;;;;;;5088873;28;20118;-84
2023/06/08 09:34:34;;;;;;;10.55;3.55;;;19.00;99.90;;;;;;5089372;28;20044;-83
2023/06/08 09:37:08;;;;;;;13.02;4.32;;;19.00;99.90;;;;;;5106232;28;20032;-84
2023/06/08 09:39:43;;;;;;;11.52;4.03;;;19.00;99.90;;;;;;5069717;28;20135;-85
2023/06/08 09:42:11;;;;;;;11.63;3.53;;;19.10;99.90;;;;;;5083387;28;20037;-84
2023/06/08 09:44:38;;;;;;;11.43;3.97;;;19.20;99.90;;;;;;5069816;28;20036;-86
2023/06/08 09:47:26;;;;;;;8.90;3.30;;;19.30;99.90;;;;;;5069779;28;20459;-85
2023/06/08 09:49:54;;;;;;;13.20;3.58;;;19.40;99.90;;;;;;5102867;28;20041;-86
2023/06/08 09:52:23;;;;;;;12.00;3.80;;;19.50;99.90;;;;;;5069211;28;20124;-85
2023/06/08 09:54:51;;;;;;;11.77;3.85;;;19.60;99.90;;;;;;5069634;28;20072;-85
2023/06/08 09:57:21;;;;;;;9.10;3.47;;;19.70;99.90;;;;;;5069046;28;20063;-84
2023/06/08 09:59:59;;;;;;;13.00;4.00;;;19.80;99.90;;;;;;5054031;28;20048;-84
2023/06/08 10:02:41;;;;;;;11.13;4.20;;;19.80;99.90;;;;;;5099652;28;20093;-85
2023/06/08 10:05:10;;;;;;;10.95;4.05;;;19.90;99.90;;;;;;5088825;28;20400;-84
2023/06/08 10:07:40;;;;;;;15.73;4.43;;;20.00;99.90;;;;;;5089290;28;20447;-84
2023/06/08 10:10:13;;;;;;;10.43;3.58;;;20.20;99.90;;;;;;5069531;28;20052;-83
2023/06/08 10:12:40;;;;;;;13.27;3.88;;;20.30;99.90;;;;;;5084646;28;20116;-85
2023/06/08 10:15:08;;;;;;;10.82;3.88;;;20.10;99.90;;;;;;5077078;28;20041;-83
2023/06/08 10:17:35;;;;;;;11.70;3.65;;;20.20;99.90;;;;;;5101802;28;20480;-81
2023/06/08 10:20:03;;;;;;;10.18;3.28;;;20.30;99.90;;;;;;5070607;28;20048;-81
2023/06/08 10:22:30;;;;;;;11.85;3.90;;;20.50;99.90;;;;;;5069440;28;20040;-80
2023/06/08 10:24:59;;;;;;;11.32;3.92;;;20.70;99.90;;;;;;5087270;28;20061;-81
2023/06/08 10:27:30;;;;;;;8.45;3.65;;;20.90;99.90;;;;;;5071275;28;20043;-80
2023/06/08 10:29:59;;;;;;;13.80;3.60;;;21.00;99.90;;;;;;5087739;28;20044;-82
2023/06/08 10:32:44;;;;;;;9.50;3.80;;;21.10;99.90;;;;;;5103935;28;20123;-81
2023/06/08 10:35:11;;;;;;;12.10;3.90;;;21.20;99.90;;;;;;5081779;28;20040;-82
2023/06/08 10:37:43;;;;;;;11.35;3.55;;;21.10;99.90;;;;;;5045563;28;20493;-82
2023/06/08 10:40:11;;;;;;;16.75;3.92;;;21.20;99.90;;;;;;5090779;28;20413;-82
2023/06/08 10:42:50;;;;;;;11.63;3.83;;;21.20;99.90;;;;;;5050435;28;20560;-82
2023/06/08 10:45:31;;;;;;;12.60;3.47;;;21.30;99.90;;;;;;5068064;28;20043;-82
2023/06/08 10:48:14;;;;;;;13.88;3.83;;;21.30;99.90;;;;;;5068826;28;20143;-84
2023/06/08 10:50:44;;;;;;;9.90;4.05;;;21.30;99.90;;;;;;5067836;28;20483;-81
2023/06/08 10:53:11;;;;;;;9.85;4.43;;;21.40;99.90;;;;;;5051705;28;20127;-82
2023/06/08 10:55:38;;;;;;;11.60;3.80;;;21.50;99.90;;;;;;5067162;28;20041;-82
2023/06/08 10:58:25;;;;;;;8.85;3.78;;;21.50;99.90;;;;;;5055723;28;20447;-81
2023/06/08 11:01:05;;;;;;;10.23;3.88;;;21.70;99.90;;;;;;5058492;28;20421;-82
2023/06/08 11:03:47;;;;;;;10.73;3.50;;;21.70;99.90;;;;;;5051053;28;20041;-82
2023/06/08 11:06:14;;;;;;;10.38;3.58;;;21.80;99.90;;;;;;5051252;28;20041;-82
2023/06/08 11:08:42;;;;;;;11.02;4.50;;;21.80;99.90;;;;;;5078258;28;20037;-83
2023/06/08 11:11:11;;;;;;;9.38;3.65;;;21.80;99.90;;;;;;5067507;28;20127;-83
2023/06/08 11:13:38;;;;;;;9.10;3.47;;;21.80;99.90;;;;;;5067681;28;20037;-83
2023/06/08 11:16:05;;;;;;;9.07;3.67;;;21.80;99.90;;;;;;5067660;28;20040;-83
2023/06/08 11:18:34;;;;;;;10.13;3.50;;;21.80;99.90;;;;;;5036659;28;20037;-82
2023/06/08 11:21:02;;;;;;;9.40;3.33;;;21.90;99.90;;;;;;5082620;28;20040;-83
2023/06/08 11:23:34;;;;;;;9.85;3.30;;;21.90;99.90;;;;;;5055009;28;20467;-83
2023/06/08 11:26:01;;;;;;;7.13;3.30;;;22.00;99.90;;;;;;5071411;28;20056;-83
2023/06/08 11:28:28;;;;;;;8.32;3.25;;;22.10;99.90;;;;;;5107401;28;20140;-83
2023/06/08 11:30:55;;;;;;;9.38;3.58;;;22.20;99.90;;;;;;5063937;28;20052;-83
2023/06/08 11:33:21;;;;;;;11.77;3.30;;;22.20;99.90;;;;;;5043377;28;20045;-83
2023/06/08 11:35:52;;;;;;;10.73;4.03;;;22.30;99.90;;;;;;5098877;28;20037;-83
2023/06/08 11:38:23;;;;;;;10.05;3.63;;;22.30;99.90;;;;;;5088281;28;20040;-83
2023/06/08 11:40:50;;;;;;;7.75;3.28;;;22.40;99.90;;;;;;5071686;28;20474;-83
2023/06/08 11:43:17;;;;;;;9.30;3.80;;;22.30;99.90;;;;;;5071931;28;20052;-83
2023/06/08 11:45:44;;;;;;;10.82;4.20;;;22.40;99.90;;;;;;5059911;28;20036;-84
2023/06/08 11:48:10;;;;;;;10.50;3.70;;;22.40;99.90;;;;;;5091203;28;20119;-83
2023/06/08 11:50:45;;;;;;;9.57;3.90;;;22.30;99.90;;;;;;5075072;28;20159;-83
2023/06/08 11:53:13;;;;;;;9.52;3.13;;;22.30;99.90;;;;;;5099474;28;20037;-83
2023/06/08 11:55:43;;;;;;;7.03;3.00;;;22.20;99.90;;;;;;5037805;28;20090;-83
2023/06/08 11:58:14;;;;;;;7.05;3.10;;;22.20;99.90;;;;;;5071041;28;20048;-83
2023/06/08 12:00:40;;;;;;;7.00;3.50;;;22.30;99.90;;;;;;5070735;28;20044;-82
2023/06/08 12:03:09;;;;;;;9.27;3.25;;;22.40;99.90;;;;;;5086576;28;20504;-82
2023/06/08 12:05:37;;;;;;;8.25;3.00;;;22.40;99.90;;;;;;5069892;28;20474;-83
2023/06/08 12:08:11;;;;;;;12.50;3.20;;;22.50;99.90;;;;;;5105164;28;20044;-83
2023/06/08 12:10:39;;;;;;;9.00;3.55;;;22.60;99.90;;;;;;5089620;28;20081;-82
2023/06/08 12:13:08;;;;;;;9.95;3.28;;;22.60;99.90;;;;;;5074161;28;20056;-82
2023/06/08 12:15:56;;;;;;;7.35;3.30;;;22.70;99.90;;;;;;5073738;28;20036;-81
2023/06/08 12:18:23;;;;;;;12.57;3.55;;;22.60;99.90;;;;;;5055155;28;20094;-81
2023/06/08 12:20:53;;;;;;;12.05;3.50;;;22.50;99.90;;;;;;5054646;28;20127;-83
2023/06/08 12:23:20;;;;;;;10.40;3.28;;;22.40;99.90;;;;;;5087536;28;20045;-84
2023/06/08 12:25:47;;;;;;;9.55;3.25;;;22.50;99.90;;;;;;5053427;28;20059;-82
2023/06/08 12:28:18;;;;;;;11.65;3.20;;;22.60;99.90;;;;;;5071187;28;20049;-83
2023/06/08 12:30:46;;;;;;;9.30;3.38;;;22.60;99.90;;;;;;5070440;28;20530;-84
2023/06/08 12:33:17;;;;;;;10.32;3.17;;;22.60;99.90;;;;;;5054274;28;20519;-83
2023/06/08 12:35:50;;;;;;;9.80;3.10;;;22.40;99.90;;;;;;5054307;28;20037;-83
2023/06/08 12:38:23;;;;;;;5.78;2.85;;;22.40;99.90;;;;;;5039564;28;20049;-83
2023/06/08 12:40:51;;;;;;;10.90;3.05;;;22.40;99.90;;;;;;5037686;28;20060;-83
2023/06/08 12:43:19;;;;;;;7.32;3.10;;;22.50;99.90;;;;;;5054325;28;20041;-84
2023/06/08 12:45:47;;;;;;;11.23;3.30;;;22.50;99.90;;;;;;5070380;28;20052;-84
2023/06/08 12:48:14;;;;;;;10.95;3.10;;;22.50;99.90;;;;;;5054033;28;20497;-80